createdAt,value
2019-01-31T00:01:35.686Z,-0.45
2019-01-31T00:04:31.527Z,-0.42
2019-01-31T00:07:31.848Z,-0.47
2019-01-31T00:10:26.858Z,-0.47
2019-01-31T00:13:17.582Z,-0.47
2019-01-31T00:16:12.389Z,-0.50
2019-01-31T00:18:51.142Z,-0.49
2019-01-31T00:22:02.664Z,-0.43
2019-01-31T00:25:05.128Z,-0.43
2019-01-31T00:28:02.946Z,-0.40
2019-01-31T00:31:01.846Z,-0.44
2019-01-31T00:34:06.117Z,-0.44
2019-01-31T00:37:03.289Z,-0.38
2019-01-31T00:40:02.906Z,-0.41
2019-01-31T00:43:32.702Z,-0.38
2019-01-31T00:46:35.452Z,-0.34
2019-01-31T00:49:23.142Z,-0.32
2019-01-31T00:52:31.950Z,-0.30
2019-01-31T00:55:31.012Z,-0.32
2019-01-31T00:58:18.845Z,-0.32
2019-01-31T01:01:19.339Z,-0.28
2019-01-31T01:04:31.405Z,-0.28
2019-01-31T01:07:41.510Z,-0.22
2019-01-31T01:10:32.479Z,-0.21
2019-01-31T01:13:35.984Z,-0.19
2019-01-31T01:16:51.515Z,-0.19
2019-01-31T01:19:48.924Z,-0.18
2019-01-31T01:22:44.517Z,-0.16
2019-01-31T01:25:52.011Z,-0.15
2019-01-31T01:28:53.255Z,-0.11
2019-01-31T01:32:06.532Z,-0.10
2019-01-31T01:35:06.237Z,-0.11
2019-01-31T01:38:12.010Z,-0.08
2019-01-31T01:41:18.745Z,-0.04
2019-01-31T01:44:17.924Z,-0.08
2019-01-31T01:47:12.588Z,-0.05
2019-01-31T01:50:26.808Z,-0.07
2019-01-31T01:53:35.914Z,-0.06
2019-01-31T01:56:29.303Z,-0.08
2019-01-31T01:59:13.979Z,-0.05
2019-01-31T02:02:22.944Z,0.00
2019-01-31T02:05:34.288Z,0.01
2019-01-31T02:08:32.046Z,0.00
2019-01-31T02:11:23.367Z,-0.03
2019-01-31T02:14:22.127Z,-0.03
2019-01-31T02:17:20.314Z,-0.01
2019-01-31T02:20:46.442Z,0.02
2019-01-31T02:24:01.621Z,0.00
2019-01-31T02:27:04.771Z,0.04
2019-01-31T02:30:18.193Z,0.04
2019-01-31T02:33:14.437Z,-0.02
2019-01-31T02:36:24.139Z,0.03
2019-01-31T02:39:25.930Z,0.06
2019-01-31T02:42:34.696Z,0.08
2019-01-31T02:45:56.746Z,0.13
2019-01-31T02:49:17.505Z,0.15
2019-01-31T02:52:06.485Z,0.18
2019-01-31T02:55:18.823Z,0.24
2019-01-31T02:58:24.666Z,0.30
2019-01-31T03:01:43.604Z,0.29
2019-01-31T03:04:27.817Z,0.29
2019-01-31T03:07:51.086Z,0.26
2019-01-31T03:10:45.468Z,0.32
2019-01-31T03:13:31.250Z,0.36
2019-01-31T03:16:39.906Z,0.36
2019-01-31T03:19:28.231Z,0.38
2019-01-31T03:22:36.738Z,0.38
2019-01-31T03:25:29.927Z,0.35
2019-01-31T03:28:23.667Z,0.35
2019-01-31T03:31:24.483Z,0.31
2019-01-31T03:34:08.084Z,0.29
2019-01-31T03:37:46.976Z,0.38
2019-01-31T03:40:53.717Z,0.32
2019-01-31T03:44:05.671Z,0.21
2019-01-31T03:47:01.056Z,0.14
2019-01-31T03:50:15.004Z,0.11
2019-01-31T03:53:34.760Z,0.03
2019-01-31T03:56:31.570Z,-0.08
2019-01-31T03:59:11.007Z,-0.16
2019-01-31T04:02:25.783Z,-0.24
2019-01-31T04:05:27.795Z,-0.29
2019-01-31T04:07:59.613Z,-0.43
2019-01-31T04:10:30.417Z,-0.51
2019-01-31T04:13:01.511Z,-0.52
2019-01-31T04:15:33.091Z,-0.48
2019-01-31T04:18:04.977Z,-0.50
2019-01-31T04:20:35.328Z,-0.51
2019-01-31T04:23:06.092Z,-0.49
2019-01-31T04:25:36.630Z,-0.49
2019-01-31T04:28:07.066Z,-0.51
2019-01-31T04:30:38.600Z,-0.57
2019-01-31T04:33:09.577Z,-0.61
2019-01-31T04:35:40.812Z,-0.63
2019-01-31T04:38:11.625Z,-0.63
2019-01-31T04:40:42.761Z,-0.63
2019-01-31T04:43:13.641Z,-0.60
2019-01-31T04:45:45.604Z,-0.57
2019-01-31T04:48:15.989Z,-0.57
2019-01-31T04:50:46.671Z,-0.60
2019-01-31T04:53:17.565Z,-0.62
2019-01-31T04:55:48.642Z,-0.65
2019-01-31T04:58:19.637Z,-0.68
2019-01-31T05:00:50.577Z,-0.73
2019-01-31T05:03:20.956Z,-0.75
2019-01-31T05:05:52.702Z,-0.75
2019-01-31T05:08:23.591Z,-0.77
2019-01-31T05:10:54.583Z,-0.84
2019-01-31T05:13:25.517Z,-0.88
2019-01-31T05:15:56.574Z,-0.96
2019-01-31T05:18:27.542Z,-1.04
2019-01-31T05:20:58.395Z,-1.10
2019-01-31T05:23:29.292Z,-1.13
2019-01-31T05:25:59.773Z,-1.14
2019-01-31T05:28:30.868Z,-1.15
2019-01-31T05:31:03.937Z,-1.13
2019-01-31T05:33:35.135Z,-1.15
2019-01-31T05:36:05.826Z,-1.18
2019-01-31T05:38:36.935Z,-1.19
2019-01-31T05:41:07.879Z,-1.20
2019-01-31T05:43:38.788Z,-1.26
2019-01-31T05:46:10.029Z,-1.32
2019-01-31T05:48:41.090Z,-1.21
2019-01-31T05:51:11.894Z,-1.29
2019-01-31T05:53:42.893Z,-1.22
2019-01-31T05:56:13.913Z,-1.24
2019-01-31T05:58:44.385Z,-1.32
2019-01-31T06:01:15.906Z,-1.43
2019-01-31T06:03:46.819Z,-1.49
2019-01-31T06:06:17.880Z,-1.49
2019-01-31T06:08:48.735Z,-1.49
2019-01-31T06:11:19.770Z,-1.48
2019-01-31T06:13:50.672Z,-1.41
2019-01-31T06:16:21.151Z,-1.50
2019-01-31T06:18:52.415Z,-1.53
2019-01-31T06:21:23.346Z,-1.59
2019-01-31T06:23:54.364Z,-1.64
2019-01-31T06:26:25.258Z,-1.69
2019-01-31T06:28:56.313Z,-1.77
2019-01-31T06:31:26.843Z,-1.76
2019-01-31T06:33:57.851Z,-1.77
2019-01-31T06:36:28.610Z,-1.85
2019-01-31T06:38:59.620Z,-1.92
2019-01-31T06:41:30.248Z,-1.94
2019-01-31T06:44:01.193Z,-1.98
2019-01-31T06:46:31.591Z,-1.90
2019-01-31T06:49:03.261Z,-1.91
2019-01-31T06:51:34.485Z,-1.93
2019-01-31T06:54:07.602Z,-1.93
2019-01-31T06:56:39.175Z,-1.94
2019-01-31T06:59:10.262Z,-1.84
2019-01-31T07:01:41.314Z,-1.85
2019-01-31T07:04:12.244Z,-1.88
2019-01-31T07:06:43.297Z,-1.80
2019-01-31T07:09:14.222Z,-1.75
2019-01-31T07:11:47.236Z,-1.75
2019-01-31T07:14:18.386Z,-1.69
2019-01-31T07:16:49.321Z,-1.66
2019-01-31T07:19:20.267Z,-1.61
2019-01-31T07:21:53.273Z,-1.59
2019-01-31T07:24:24.373Z,-1.55
2019-01-31T07:26:56.397Z,-1.56
2019-01-31T07:29:28.313Z,-1.55
2019-01-31T07:32:03.620Z,-1.43
2019-01-31T07:34:33.470Z,-1.43
2019-01-31T07:37:06.303Z,-1.40
2019-01-31T07:39:37.220Z,-1.24
2019-01-31T07:42:08.073Z,-1.23
2019-01-31T07:44:38.515Z,-1.23
2019-01-31T07:47:09.400Z,-1.24
2019-01-31T07:49:40.531Z,-1.14
2019-01-31T07:52:11.713Z,-1.15
2019-01-31T07:54:42.463Z,-1.20
2019-01-31T07:57:13.486Z,-1.12
2019-01-31T07:59:44.383Z,-1.14
2019-01-31T08:02:15.268Z,-1.04
2019-01-31T08:04:46.194Z,-0.96
2019-01-31T08:07:16.644Z,-1.03
2019-01-31T08:09:47.564Z,-0.94
2019-01-31T08:12:18.831Z,-0.91
2019-01-31T08:14:49.613Z,-0.81
2019-01-31T08:17:20.569Z,-0.69
2019-01-31T08:19:51.718Z,-0.55
2019-01-31T08:22:22.084Z,-0.54
2019-01-31T08:24:53.673Z,-0.52
2019-01-31T08:27:24.517Z,-0.46
2019-01-31T08:29:55.359Z,-0.40
2019-01-31T08:32:26.250Z,-0.30
2019-01-31T08:34:56.730Z,-0.24
2019-01-31T08:37:27.667Z,-0.20
2019-01-31T08:39:58.900Z,-0.15
2019-01-31T08:42:29.903Z,-0.08
2019-01-31T08:45:00.730Z,0.02
2019-01-31T08:47:31.788Z,-0.06
2019-01-31T08:50:02.678Z,-0.02
2019-01-31T08:52:33.653Z,0.00
2019-01-31T08:55:05.061Z,0.02
2019-01-31T08:57:35.923Z,0.07
2019-01-31T09:00:08.799Z,0.26
2019-01-31T09:02:40.855Z,0.32
2019-01-31T09:05:11.801Z,0.28
2019-01-31T09:07:42.949Z,0.26
2019-01-31T09:10:16.451Z,0.35
2019-01-31T09:12:47.907Z,0.51
2019-01-31T09:15:22.766Z,0.68
2019-01-31T09:17:54.988Z,0.60
2019-01-31T09:20:37.293Z,0.64
2019-01-31T09:23:26.546Z,0.73
2019-01-31T09:26:33.931Z,0.73
2019-01-31T09:29:54.200Z,0.70
2019-01-31T09:33:09.003Z,0.88
2019-01-31T09:36:05.480Z,1.06
2019-01-31T09:39:20.368Z,1.21
2019-01-31T09:42:26.590Z,1.22
2019-01-31T09:45:21.620Z,1.37
2019-01-31T09:48:08.103Z,1.46
2019-01-31T09:51:19.906Z,1.58
2019-01-31T09:54:11.009Z,1.67
2019-01-31T09:57:23.929Z,1.67
2019-01-31T10:00:27.981Z,1.71
2019-01-31T10:03:51.262Z,1.74
2019-01-31T10:06:43.367Z,2.02
2019-01-31T10:09:55.320Z,2.20
2019-01-31T10:13:22.686Z,2.20
2019-01-31T10:16:23.029Z,2.20
2019-01-31T10:19:47.868Z,1.92
2019-01-31T10:23:09.963Z,1.68
2019-01-31T10:26:05.040Z,1.64
2019-01-31T10:29:13.001Z,1.76
2019-01-31T10:32:13.912Z,1.93
2019-01-31T10:35:29.828Z,2.06
2019-01-31T10:38:25.033Z,2.26
2019-01-31T10:41:39.248Z,2.62
2019-01-31T10:45:05.212Z,2.63
2019-01-31T10:48:27.521Z,2.72
2019-01-31T10:51:34.772Z,2.57
2019-01-31T10:54:16.879Z,2.47
2019-01-31T10:57:30.068Z,2.57
2019-01-31T11:00:30.251Z,2.64
2019-01-31T11:03:32.152Z,2.79
2019-01-31T11:06:41.391Z,2.82
2019-01-31T11:10:22.183Z,2.72
2019-01-31T11:13:33.547Z,2.51
2019-01-31T11:16:28.670Z,2.49
2019-01-31T11:19:52.212Z,2.45
2019-01-31T11:23:01.263Z,2.36
2019-01-31T11:26:13.878Z,2.40
2019-01-31T11:29:19.035Z,2.28
2019-01-31T11:32:30.307Z,2.20
2019-01-31T11:35:35.229Z,2.26
2019-01-31T11:38:44.112Z,2.16
2019-01-31T11:42:10.756Z,2.18
2019-01-31T11:45:25.005Z,2.25
2019-01-31T11:48:34.913Z,2.26
2019-01-31T11:51:38.902Z,2.41
2019-01-31T11:54:55.414Z,2.27
2019-01-31T11:57:48.291Z,2.16
2019-01-31T12:00:23.820Z,1.93
2019-01-31T12:02:55.845Z,1.65
2019-01-31T12:05:27.651Z,1.61
2019-01-31T12:08:00.466Z,1.55
2019-01-31T12:10:31.402Z,1.55
2019-01-31T12:13:05.085Z,1.56
2019-01-31T12:15:36.172Z,1.61
2019-01-31T12:18:07.198Z,1.76
2019-01-31T12:20:37.738Z,1.97
2019-01-31T12:23:08.586Z,2.11
2019-01-31T12:25:39.722Z,2.25
2019-01-31T12:28:10.672Z,2.08
2019-01-31T12:30:41.784Z,2.03
2019-01-31T12:33:12.737Z,2.02
2019-01-31T12:35:43.591Z,1.98
2019-01-31T12:38:14.650Z,2.01
2019-01-31T12:40:45.788Z,2.06
2019-01-31T12:43:18.319Z,2.21
2019-01-31T12:45:50.882Z,2.26
2019-01-31T12:48:21.372Z,2.25
2019-01-31T12:50:52.805Z,2.31
2019-01-31T12:53:24.789Z,2.22
2019-01-31T12:55:57.773Z,2.04
2019-01-31T12:58:33.612Z,1.93
2019-01-31T13:01:03.489Z,1.77
2019-01-31T13:03:33.895Z,1.71
2019-01-31T13:06:04.976Z,1.71
2019-01-31T13:08:35.707Z,1.66
2019-01-31T13:11:07.385Z,1.71
2019-01-31T13:13:45.975Z,1.91
2019-01-31T13:16:10.995Z,1.90
2019-01-31T13:18:42.984Z,1.99
2019-01-31T13:21:14.147Z,2.06
2019-01-31T13:23:45.194Z,2.19
2019-01-31T13:26:15.967Z,2.32
2019-01-31T13:28:46.382Z,2.38
2019-01-31T13:31:18.087Z,2.39
2019-01-31T13:33:49.010Z,2.15
2019-01-31T13:36:19.996Z,2.11
2019-01-31T13:38:52.192Z,1.95
2019-01-31T13:41:24.362Z,1.73
2019-01-31T13:43:57.604Z,1.61
2019-01-31T13:46:29.050Z,1.58
2019-01-31T13:49:00.080Z,1.43
2019-01-31T13:51:31.028Z,1.46
2019-01-31T13:54:02.089Z,1.42
2019-01-31T13:56:44.906Z,1.39
2019-01-31T13:59:06.983Z,1.26
2019-01-31T14:01:38.149Z,1.24
2019-01-31T14:04:09.120Z,1.26
2019-01-31T14:06:41.174Z,1.34
2019-01-31T14:09:14.142Z,1.35
2019-01-31T14:11:45.089Z,1.36
2019-01-31T14:14:16.071Z,1.38
2019-01-31T14:16:48.120Z,1.33
2019-01-31T14:19:21.183Z,1.40
2019-01-31T14:21:52.175Z,1.35
2019-01-31T14:24:22.600Z,1.43
2019-01-31T14:26:54.104Z,1.29
2019-01-31T14:29:25.410Z,1.28
2019-01-31T14:31:58.197Z,1.26
2019-01-31T14:34:29.831Z,1.33
2019-01-31T14:37:00.224Z,1.21
2019-01-31T14:39:32.139Z,1.07
2019-01-31T14:42:02.652Z,1.04
2019-01-31T14:44:33.748Z,1.05
2019-01-31T14:47:04.163Z,1.07
2019-01-31T14:49:35.759Z,1.03
2019-01-31T14:52:06.516Z,0.97
2019-01-31T14:54:37.296Z,0.99
2019-01-31T14:57:08.505Z,0.97
2019-01-31T14:59:39.558Z,0.92
2019-01-31T15:02:10.482Z,0.79
2019-01-31T15:04:41.700Z,0.82
2019-01-31T15:07:12.489Z,0.87
2019-01-31T15:09:43.405Z,0.73
2019-01-31T15:12:14.097Z,0.69
2019-01-31T15:14:44.515Z,0.65
2019-01-31T15:17:15.490Z,0.71
2019-01-31T15:19:46.631Z,0.69
2019-01-31T15:22:17.819Z,0.57
2019-01-31T15:24:48.638Z,0.57
2019-01-31T15:27:19.439Z,0.55
2019-01-31T15:29:50.424Z,0.53
2019-01-31T15:32:21.427Z,0.50
2019-01-31T15:34:52.186Z,0.45
2019-01-31T15:37:22.650Z,0.49
2019-01-31T15:39:53.566Z,0.56
2019-01-31T15:42:25.185Z,0.54
2019-01-31T15:44:56.519Z,0.54
2019-01-31T15:47:27.077Z,0.52
2019-01-31T15:49:57.602Z,0.48
2019-01-31T15:52:28.586Z,0.44
2019-01-31T15:54:59.585Z,0.33
2019-01-31T15:57:30.738Z,0.42
2019-01-31T16:00:01.677Z,0.39
2019-01-31T16:02:32.722Z,0.36
2019-01-31T16:05:03.643Z,0.33
2019-01-31T16:07:34.600Z,0.35
2019-01-31T16:10:05.738Z,0.21
2019-01-31T16:12:36.537Z,0.27
2019-01-31T16:15:08.232Z,0.36
2019-01-31T16:17:38.627Z,0.33
2019-01-31T16:20:10.607Z,0.32
2019-01-31T16:22:43.087Z,0.42
2019-01-31T16:25:13.703Z,0.30
2019-01-31T16:27:44.618Z,0.30
2019-01-31T16:30:16.085Z,0.36
2019-01-31T16:32:46.833Z,0.27
2019-01-31T16:35:17.833Z,0.31
2019-01-31T16:37:49.024Z,0.33
2019-01-31T16:40:19.936Z,0.24
2019-01-31T16:42:50.873Z,0.21
2019-01-31T16:45:21.728Z,0.29
2019-01-31T16:47:54.786Z,0.24
2019-01-31T16:50:27.770Z,0.29
2019-01-31T16:52:59.824Z,0.26
2019-01-31T16:55:30.917Z,0.27
2019-01-31T16:58:01.927Z,0.28
2019-01-31T17:00:33.999Z,0.30
2019-01-31T17:03:05.259Z,0.31
2019-01-31T17:05:38.011Z,0.29
2019-01-31T17:08:09.057Z,0.35
2019-01-31T17:10:39.834Z,0.28
2019-01-31T17:13:10.959Z,0.24
2019-01-31T17:15:44.017Z,0.32
2019-01-31T17:18:14.961Z,0.43
2019-01-31T17:20:46.817Z,0.29
2019-01-31T17:23:17.230Z,0.31
2019-01-31T17:25:48.033Z,0.28
2019-01-31T17:28:19.051Z,0.39
2019-01-31T17:30:49.978Z,0.37
2019-01-31T17:33:20.894Z,0.53
2019-01-31T17:35:51.847Z,0.53
2019-01-31T17:38:22.292Z,0.60
2019-01-31T17:40:53.791Z,0.58
2019-01-31T17:43:24.679Z,0.56
2019-01-31T17:45:55.809Z,0.56
2019-01-31T17:48:26.681Z,0.45
2019-01-31T17:50:57.609Z,0.52
2019-01-31T17:53:28.046Z,0.52
2019-01-31T17:55:59.096Z,0.47
2019-01-31T17:58:30.517Z,0.51
2019-01-31T18:01:01.203Z,0.59
2019-01-31T18:03:32.585Z,0.63
2019-01-31T18:06:03.248Z,0.68
2019-01-31T18:08:34.240Z,0.57
2019-01-31T18:11:05.245Z,0.61
2019-01-31T18:13:36.297Z,0.62
2019-01-31T18:16:07.178Z,0.57
2019-01-31T18:18:38.324Z,0.65
2019-01-31T18:21:09.243Z,0.54
2019-01-31T18:23:40.155Z,0.53
2019-01-31T18:26:11.255Z,0.52
2019-01-31T18:28:42.196Z,0.55
2019-01-31T18:31:12.935Z,0.50
2019-01-31T18:33:43.472Z,0.47
2019-01-31T18:36:14.922Z,0.38
2019-01-31T18:38:45.398Z,0.28
2019-01-31T18:41:16.451Z,0.33
2019-01-31T18:43:47.203Z,0.20
2019-01-31T18:46:18.415Z,0.28
2019-01-31T18:48:49.908Z,0.18
2019-01-31T18:51:20.455Z,0.10
2019-01-31T18:53:53.743Z,0.08
2019-01-31T18:56:25.560Z,0.03
2019-01-31T18:58:56.737Z,0.02
2019-01-31T19:01:27.541Z,0.04
2019-01-31T19:03:58.572Z,-0.10
2019-01-31T19:06:29.411Z,-0.01
2019-01-31T19:09:01.009Z,0.01
2019-01-31T19:11:31.571Z,0.15
2019-01-31T19:14:02.455Z,0.06
2019-01-31T19:16:33.595Z,-0.06
2019-01-31T19:19:04.740Z,-0.16
2019-01-31T19:21:35.560Z,-0.07
2019-01-31T19:24:08.657Z,-0.05
2019-01-31T19:26:39.554Z,-0.07
2019-01-31T19:29:10.954Z,-0.04
2019-01-31T19:31:41.550Z,0.01
2019-01-31T19:34:13.693Z,0.08
2019-01-31T19:36:44.984Z,0.10
2019-01-31T19:39:18.909Z,0.11
2019-01-31T19:41:49.566Z,0.16
2019-01-31T19:44:21.702Z,0.17
2019-01-31T19:46:53.546Z,0.17
2019-01-31T19:49:25.752Z,0.13
2019-01-31T19:51:58.775Z,0.11
2019-01-31T19:54:30.157Z,0.07
2019-01-31T19:57:01.040Z,0.15
2019-01-31T19:59:31.760Z,0.15
2019-01-31T20:02:03.290Z,0.07
2019-01-31T20:04:34.826Z,0.07
2019-01-31T20:07:06.425Z,0.10
2019-01-31T20:09:38.723Z,0.04
2019-01-31T20:12:09.879Z,-0.11
2019-01-31T20:14:40.743Z,-0.18
2019-01-31T20:17:11.751Z,-0.16
2019-01-31T20:19:42.885Z,-0.09
2019-01-31T20:22:13.774Z,-0.24
2019-01-31T20:24:44.916Z,-0.27
2019-01-31T20:27:15.801Z,-0.36
2019-01-31T20:29:46.989Z,-0.45
2019-01-31T20:32:17.858Z,-0.61
2019-01-31T20:34:48.823Z,-0.59
2019-01-31T20:37:21.762Z,-0.59
2019-01-31T20:39:53.997Z,-0.64
2019-01-31T20:42:25.878Z,-0.71
2019-01-31T20:44:57.882Z,-0.63
2019-01-31T20:47:30.797Z,-0.63
2019-01-31T20:50:04.067Z,-0.70
2019-01-31T20:52:34.924Z,-0.73
2019-01-31T20:55:06.986Z,-0.72
2019-01-31T20:57:39.247Z,-0.75
2019-01-31T21:00:14.857Z,-0.81
2019-01-31T21:02:48.101Z,-0.80
2019-01-31T21:05:21.226Z,-0.73
2019-01-31T21:07:52.015Z,-0.81
2019-01-31T21:10:22.407Z,-0.85
2019-01-31T21:12:53.646Z,-0.77
2019-01-31T21:15:26.131Z,-0.87
2019-01-31T21:17:59.166Z,-1.03
2019-01-31T21:20:32.091Z,-1.07
2019-01-31T21:23:04.565Z,-1.09
2019-01-31T21:25:35.151Z,-1.08
2019-01-31T21:28:06.689Z,-1.21
2019-01-31T21:30:41.554Z,-1.19
2019-01-31T21:33:14.133Z,-1.21
2019-01-31T21:35:45.128Z,-1.12
2019-01-31T21:38:16.232Z,-1.15
2019-01-31T21:40:47.207Z,-1.18
2019-01-31T21:43:18.194Z,-1.30
2019-01-31T21:45:51.236Z,-1.37
2019-01-31T21:48:22.292Z,-1.28
2019-01-31T21:50:53.097Z,-1.34
2019-01-31T21:53:25.179Z,-1.33
2019-01-31T21:55:59.904Z,-1.41
2019-01-31T21:58:30.670Z,-1.44
2019-01-31T22:01:03.279Z,-1.50
2019-01-31T22:03:34.149Z,-1.51
2019-01-31T22:06:05.418Z,-1.54
2019-01-31T22:08:36.612Z,-1.51
2019-01-31T22:11:07.382Z,-1.41
2019-01-31T22:13:38.210Z,-1.51
2019-01-31T22:16:09.723Z,-1.53
2019-01-31T22:18:40.385Z,-1.50
2019-01-31T22:21:11.325Z,-1.61
2019-01-31T22:23:42.257Z,-1.70
2019-01-31T22:26:13.432Z,-1.63
2019-01-31T22:28:44.451Z,-1.61
2019-01-31T22:31:15.402Z,-1.57
2019-01-31T22:33:46.395Z,-1.48
2019-01-31T22:36:17.855Z,-1.52
2019-01-31T22:38:48.451Z,-1.58
2019-01-31T22:41:19.434Z,-1.51
2019-01-31T22:43:50.452Z,-1.33
2019-01-31T22:46:21.508Z,-1.33
2019-01-31T22:48:52.567Z,-1.35
2019-01-31T22:51:23.042Z,-1.37
2019-01-31T22:53:54.437Z,-1.39
2019-01-31T22:56:25.422Z,-1.40
2019-01-31T22:58:56.359Z,-1.30
2019-01-31T23:01:45.202Z,-1.30
2019-01-31T23:04:16.629Z,-1.29
2019-01-31T23:06:47.573Z,-1.22
2019-01-31T23:09:18.515Z,-1.22
2019-01-31T23:11:49.690Z,-1.19
2019-01-31T23:14:20.718Z,-1.10
2019-01-31T23:16:51.566Z,-1.03
2019-01-31T23:19:22.325Z,-1.03
2019-01-31T23:21:53.527Z,-0.82
2019-01-31T23:24:26.673Z,-0.84
2019-01-31T23:26:57.557Z,-0.82
2019-01-31T23:29:28.597Z,-0.99
2019-01-31T23:31:59.544Z,-1.04
2019-01-31T23:34:31.406Z,-1.06
2019-01-31T23:37:02.721Z,-1.15
2019-01-31T23:39:33.556Z,-1.16
2019-01-31T23:42:05.846Z,-1.16
2019-01-31T23:44:37.694Z,-1.21
2019-01-31T23:47:10.191Z,-1.17
2019-01-31T23:49:42.776Z,-1.16
2019-01-31T23:52:14.612Z,-1.08
2019-01-31T23:54:47.584Z,-1.16
2019-01-31T23:57:18.633Z,-1.27
2019-01-31T23:59:49.767Z,-1.33
